createdAt,value
2023-04-14T00:01:38.018Z,0.80
2023-04-14T00:04:04.621Z,0.50
2023-04-14T00:06:31.322Z,0.30
2023-04-14T00:08:58.127Z,0.20
2023-04-14T00:11:24.760Z,0.20
2023-04-14T00:13:51.227Z,0.20
2023-04-14T00:16:17.686Z,0.45
2023-04-14T00:18:44.038Z,0.20
2023-04-14T00:21:10.406Z,0.50
2023-04-14T00:23:36.841Z,0.40
2023-04-14T00:26:03.241Z,0.20
2023-04-14T00:28:29.526Z,0.32
2023-04-14T00:30:55.900Z,0.20
2023-04-14T00:33:22.273Z,0.20
2023-04-14T00:35:48.631Z,0.50
2023-04-14T00:38:14.922Z,0.60
2023-04-14T00:40:41.215Z,0.68
2023-04-14T00:43:07.662Z,0.40
2023-04-14T00:45:38.470Z,0.40
2023-04-14T00:48:04.850Z,0.35
2023-04-14T00:50:33.278Z,0.30
2023-04-14T00:52:59.618Z,0.30
2023-04-14T00:55:26.414Z,0.93
2023-04-14T00:57:52.815Z,0.82
2023-04-14T01:00:19.736Z,0.50
2023-04-14T01:02:46.554Z,0.40
2023-04-14T01:05:13.207Z,0.22
2023-04-14T01:07:40.454Z,0.30
2023-04-14T01:10:07.290Z,0.20
2023-04-14T01:12:33.592Z,0.32
2023-04-14T01:15:18.064Z,0.30
2023-04-14T01:17:47.437Z,0.20
2023-04-14T01:20:22.761Z,0.20
2023-04-14T01:22:53.486Z,0.20
2023-04-14T01:25:38.437Z,0.20
2023-04-14T01:28:23.039Z,0.22
2023-04-14T01:31:08.152Z,0.25
2023-04-14T01:33:36.546Z,0.35
2023-04-14T01:36:05.164Z,0.28
2023-04-14T01:38:33.341Z,0.57
2023-04-14T01:41:05.665Z,0.20
2023-04-14T01:43:32.770Z,0.30
2023-04-14T01:46:01.317Z,0.30
2023-04-14T01:48:28.473Z,0.20
2023-04-14T01:50:55.296Z,0.32
2023-04-14T01:53:22.676Z,0.20
2023-04-14T01:55:49.402Z,0.20
2023-04-14T01:58:17.668Z,0.47
2023-04-14T02:00:44.788Z,0.40
2023-04-14T02:03:11.794Z,0.30
2023-04-14T02:05:39.104Z,0.20
2023-04-14T02:08:07.440Z,0.25
2023-04-14T02:10:34.161Z,0.30
2023-04-14T02:13:01.428Z,0.30
2023-04-14T02:15:29.174Z,1.40
2023-04-14T02:17:56.895Z,0.47
2023-04-14T02:20:23.378Z,0.30
2023-04-14T02:22:49.674Z,0.30
2023-04-14T02:25:16.163Z,0.30
2023-04-14T02:27:51.032Z,0.30
2023-04-14T02:30:21.443Z,0.55
2023-04-14T02:32:49.533Z,0.52
2023-04-14T02:35:18.732Z,1.55
2023-04-14T02:37:48.870Z,0.70
2023-04-14T02:40:20.263Z,0.50
2023-04-14T02:42:50.171Z,1.00
2023-04-14T02:45:21.194Z,0.40
2023-04-14T02:47:49.378Z,0.30
2023-04-14T02:50:16.654Z,0.40
2023-04-14T02:52:44.093Z,0.65
2023-04-14T02:55:10.819Z,0.30
2023-04-14T02:57:37.770Z,0.32
2023-04-14T03:00:06.213Z,0.40
2023-04-14T03:02:33.552Z,0.30
2023-04-14T03:05:00.708Z,0.30
2023-04-14T03:07:28.099Z,0.43
2023-04-14T03:09:54.694Z,3.20
2023-04-14T03:12:21.514Z,1.15
2023-04-14T03:14:48.437Z,0.90
2023-04-14T03:17:15.086Z,0.88
2023-04-14T03:19:43.033Z,0.93
2023-04-14T03:22:10.573Z,0.50
2023-04-14T03:24:37.617Z,0.80
2023-04-14T03:27:27.923Z,0.65
2023-04-14T03:29:55.429Z,1.20
2023-04-14T03:32:26.422Z,0.70
2023-04-14T03:34:54.940Z,0.30
2023-04-14T03:37:24.277Z,0.40
2023-04-14T03:39:52.197Z,0.50
2023-04-14T03:42:19.612Z,1.65
2023-04-14T03:44:50.131Z,0.60
2023-04-14T03:47:16.549Z,0.32
2023-04-14T03:49:46.164Z,0.40
2023-04-14T03:52:13.547Z,0.40
2023-04-14T03:54:41.794Z,0.38
2023-04-14T03:57:09.568Z,0.60
2023-04-14T03:59:36.465Z,1.02
2023-04-14T04:02:03.103Z,0.50
2023-04-14T04:04:31.272Z,0.60
2023-04-14T04:06:58.769Z,0.63
2023-04-14T04:09:25.580Z,0.73
2023-04-14T04:11:54.934Z,0.60
2023-04-14T04:14:21.652Z,0.40
2023-04-14T04:16:49.755Z,0.47
2023-04-14T04:19:17.118Z,0.30
2023-04-14T04:21:44.479Z,0.35
2023-04-14T04:24:12.244Z,0.30
2023-04-14T04:26:38.711Z,0.38
2023-04-14T04:29:05.454Z,0.38
2023-04-14T04:31:33.196Z,0.30
2023-04-14T04:33:59.627Z,0.40
2023-04-14T04:36:26.668Z,0.50
2023-04-14T04:38:52.992Z,0.20
2023-04-14T04:41:29.969Z,0.20
2023-04-14T04:43:56.629Z,0.20
2023-04-14T04:46:41.176Z,0.20
2023-04-14T04:49:07.523Z,0.30
2023-04-14T04:51:33.877Z,0.30
2023-04-14T04:54:00.549Z,0.30
2023-04-14T04:56:27.238Z,0.40
2023-04-14T04:58:53.586Z,0.28
2023-04-14T05:01:19.994Z,0.20
2023-04-14T05:03:46.327Z,0.20
2023-04-14T05:06:13.301Z,0.30
2023-04-14T05:08:39.805Z,0.73
2023-04-14T05:11:06.491Z,1.77
2023-04-14T05:13:33.096Z,1.08
2023-04-14T05:16:05.835Z,0.60
2023-04-14T05:18:32.877Z,0.70
2023-04-14T05:21:06.378Z,0.40
2023-04-14T05:23:33.321Z,0.30
2023-04-14T05:26:16.414Z,0.30
2023-04-14T05:28:46.367Z,0.30
2023-04-14T05:31:12.730Z,0.60
2023-04-14T05:33:39.911Z,1.48
2023-04-14T05:36:06.742Z,0.40
2023-04-14T05:38:33.178Z,1.13
2023-04-14T05:40:59.949Z,0.40
2023-04-14T05:43:26.357Z,0.90
2023-04-14T05:45:52.739Z,1.13
2023-04-14T05:48:19.123Z,0.65
2023-04-14T05:50:46.169Z,0.63
2023-04-14T05:53:12.553Z,0.50
2023-04-14T05:55:41.835Z,0.50
2023-04-14T05:58:08.272Z,1.10
2023-04-14T06:00:34.631Z,1.10
2023-04-14T06:03:01.300Z,1.35
2023-04-14T06:05:27.816Z,1.98
2023-04-14T06:07:54.207Z,0.85
2023-04-14T06:10:20.742Z,0.98
2023-04-14T06:12:47.149Z,0.70
2023-04-14T06:15:13.499Z,0.40
2023-04-14T06:17:40.172Z,0.60
2023-04-14T06:20:06.937Z,0.50
2023-04-14T06:22:33.226Z,0.82
2023-04-14T06:24:59.654Z,0.52
2023-04-14T06:27:26.067Z,0.30
2023-04-14T06:29:52.772Z,0.40
2023-04-14T06:32:19.857Z,0.50
2023-04-14T06:34:47.982Z,0.52
2023-04-14T06:37:15.018Z,0.20
2023-04-14T06:39:41.489Z,0.20
2023-04-14T06:42:07.935Z,0.20
2023-04-14T06:44:34.226Z,0.20
2023-04-14T06:47:00.702Z,0.20
2023-04-14T06:49:27.252Z,0.15
2023-04-14T06:51:53.610Z,0.20
2023-04-14T06:54:19.913Z,0.10
2023-04-14T06:56:46.353Z,0.10
2023-04-14T06:59:12.805Z,0.10
2023-04-14T07:01:39.186Z,0.10
2023-04-14T07:04:07.580Z,0.10
2023-04-14T07:06:34.419Z,0.10
2023-04-14T07:09:00.862Z,0.10
2023-04-14T07:11:27.229Z,0.10
2023-04-14T07:13:53.523Z,0.10
2023-04-14T07:16:20.070Z,0.20
2023-04-14T07:18:46.409Z,0.20
2023-04-14T07:21:12.773Z,0.10
2023-04-14T07:23:39.782Z,0.15
2023-04-14T07:26:06.091Z,0.32
2023-04-14T07:28:32.597Z,0.85
2023-04-14T07:30:59.157Z,2.38
2023-04-14T07:33:27.061Z,2.38
2023-04-14T07:36:02.256Z,1.75
2023-04-14T07:38:30.560Z,1.25
2023-04-14T07:40:57.553Z,1.02
2023-04-14T07:43:24.114Z,1.52
2023-04-14T07:45:51.696Z,1.38
2023-04-14T07:48:19.758Z,1.27
2023-04-14T07:50:48.282Z,1.05
2023-04-14T07:53:14.753Z,2.67
2023-04-14T07:55:41.262Z,0.95
2023-04-14T07:58:07.599Z,1.10
2023-04-14T08:00:34.002Z,1.00
2023-04-14T08:03:00.788Z,1.15
2023-04-14T08:05:27.341Z,1.65
2023-04-14T08:07:53.724Z,1.33
2023-04-14T08:10:20.250Z,1.17
2023-04-14T08:12:46.905Z,1.00
2023-04-14T08:15:13.245Z,1.30
2023-04-14T08:17:39.605Z,2.00
2023-04-14T08:20:06.918Z,1.02
2023-04-14T08:22:33.264Z,3.38
2023-04-14T08:24:59.617Z,1.23
2023-04-14T08:27:26.075Z,0.73
2023-04-14T08:29:52.505Z,1.23
2023-04-14T08:32:18.893Z,1.20
2023-04-14T08:35:39.537Z,1.00
2023-04-14T08:37:31.615Z,0.95
2023-04-14T08:39:58.035Z,0.30
2023-04-14T08:42:24.697Z,0.40
2023-04-14T08:44:52.758Z,0.50
2023-04-14T08:47:19.693Z,0.40
2023-04-14T08:49:51.577Z,1.38
2023-04-14T08:54:46.407Z,1.48
2023-04-14T08:57:15.750Z,1.33
2023-04-14T08:59:42.279Z,1.65
2023-04-14T09:02:09.576Z,0.65
2023-04-14T09:04:37.505Z,0.80
2023-04-14T09:07:04.636Z,0.80
2023-04-14T09:09:31.459Z,4.53
2023-04-14T09:11:58.209Z,2.30
2023-04-14T09:14:24.627Z,2.45
2023-04-14T09:16:53.934Z,1.30
2023-04-14T09:19:21.318Z,0.90
2023-04-14T09:21:52.652Z,3.00
2023-04-14T09:24:23.798Z,1.30
2023-04-14T09:26:50.678Z,0.93
2023-04-14T09:29:17.056Z,0.40
2023-04-14T09:31:44.741Z,1.42
2023-04-14T09:34:21.520Z,2.67
2023-04-14T09:37:01.060Z,2.03
2023-04-14T09:39:27.438Z,1.20
2023-04-14T09:41:53.838Z,2.05
2023-04-14T09:44:20.386Z,1.33
2023-04-14T09:46:59.851Z,0.63
2023-04-14T09:49:26.476Z,0.50
2023-04-14T09:51:54.313Z,0.38
2023-04-14T09:54:25.772Z,0.95
2023-04-14T09:56:52.842Z,0.75
2023-04-14T09:59:30.093Z,1.65
2023-04-14T10:01:58.529Z,3.95
2023-04-14T10:04:26.572Z,2.00
2023-04-14T10:06:56.886Z,0.95
2023-04-14T10:09:23.696Z,2.35
2023-04-14T10:12:09.029Z,3.03
2023-04-14T10:14:36.706Z,2.05
2023-04-14T10:17:03.024Z,2.88
2023-04-14T10:19:29.667Z,1.83
2023-04-14T10:21:57.362Z,3.35
2023-04-14T10:24:23.989Z,1.10
2023-04-14T10:26:51.261Z,3.65
2023-04-14T10:29:17.873Z,2.63
2023-04-14T10:31:49.851Z,3.47
2023-04-14T10:34:16.419Z,2.78
2023-04-14T10:36:43.324Z,2.30
2023-04-14T10:39:10.936Z,3.05
2023-04-14T10:41:47.953Z,3.58
2023-04-14T10:44:23.667Z,3.25
2023-04-14T10:46:50.294Z,3.35
2023-04-14T10:49:16.911Z,2.30
2023-04-14T10:51:44.701Z,4.10
2023-04-14T10:54:19.232Z,4.55
2023-04-14T10:57:04.206Z,1.77
2023-04-14T10:59:30.718Z,0.38
2023-04-14T11:01:57.131Z,3.00
2023-04-14T11:04:23.859Z,1.85
2023-04-14T11:06:51.560Z,1.92
2023-04-14T11:09:24.725Z,3.15
2023-04-14T11:11:52.320Z,2.97
2023-04-14T11:14:25.063Z,1.30
2023-04-14T11:17:02.551Z,1.58
2023-04-14T11:19:30.321Z,2.70
2023-04-14T11:21:57.377Z,2.67
2023-04-14T11:24:24.203Z,1.33
2023-04-14T11:26:54.748Z,2.38
2023-04-14T11:29:21.511Z,0.80
2023-04-14T11:31:59.234Z,2.95
2023-04-14T11:34:26.184Z,2.38
2023-04-14T11:36:52.539Z,0.52
2023-04-14T11:39:19.171Z,1.92
2023-04-14T11:41:46.325Z,1.83
2023-04-14T11:44:16.645Z,1.50
2023-04-14T11:46:43.493Z,0.95
2023-04-14T11:49:09.782Z,1.85
2023-04-14T11:51:36.126Z,2.25
2023-04-14T11:54:03.508Z,3.88
2023-04-14T11:56:30.587Z,2.45
2023-04-14T11:59:04.244Z,1.65
2023-04-14T12:01:32.603Z,1.25
2023-04-14T12:03:59.225Z,0.40
2023-04-14T12:06:27.430Z,1.10
2023-04-14T12:08:54.465Z,1.20
2023-04-14T12:11:21.134Z,2.60
2023-04-14T12:13:47.800Z,1.92
2023-04-14T12:16:15.798Z,3.08
2023-04-14T12:18:42.462Z,2.08
2023-04-14T12:21:11.675Z,4.13
2023-04-14T12:23:39.906Z,2.35
2023-04-14T12:26:09.584Z,2.05
2023-04-14T12:28:38.962Z,1.15
2023-04-14T12:31:05.477Z,0.85
2023-04-14T12:33:32.329Z,1.85
2023-04-14T12:36:09.883Z,4.20
2023-04-14T12:38:36.320Z,1.65
2023-04-14T12:41:02.709Z,0.98
2023-04-14T12:43:30.103Z,0.73
2023-04-14T12:45:58.007Z,1.77
2023-04-14T12:48:38.242Z,1.55
2023-04-14T12:51:10.917Z,4.15
2023-04-14T12:53:37.583Z,3.10
2023-04-14T12:56:04.625Z,2.05
2023-04-14T12:58:31.118Z,1.85
2023-04-14T13:00:57.547Z,2.40
2023-04-14T13:03:24.283Z,2.58
2023-04-14T13:05:51.411Z,4.65
2023-04-14T13:08:17.760Z,2.22
2023-04-14T13:10:44.180Z,3.88
2023-04-14T13:13:10.501Z,5.00
2023-04-14T13:16:13.210Z,2.80
2023-04-14T13:18:23.199Z,5.30
2023-04-14T13:20:55.972Z,1.60
2023-04-14T13:23:22.882Z,2.97
2023-04-14T13:25:49.525Z,2.30
2023-04-14T13:28:16.327Z,2.00
2023-04-14T13:30:43.726Z,4.18
2023-04-14T13:33:10.388Z,2.03
2023-04-14T13:35:36.961Z,0.65
2023-04-14T13:38:04.638Z,2.05
2023-04-14T13:40:31.105Z,1.00
2023-04-14T13:42:57.743Z,2.10
2023-04-14T13:45:24.284Z,0.43
2023-04-14T13:47:50.981Z,2.00
2023-04-14T13:50:18.832Z,2.75
2023-04-14T13:52:45.182Z,1.70
2023-04-14T13:55:11.764Z,1.77
2023-04-14T13:57:38.328Z,1.70
2023-04-14T14:00:05.673Z,0.55
2023-04-14T14:02:33.408Z,2.75
2023-04-14T14:05:00.423Z,4.63
2023-04-14T14:07:26.710Z,3.65
2023-04-14T14:09:53.101Z,1.65
2023-04-14T14:12:19.444Z,2.15
2023-04-14T14:14:45.820Z,0.90
2023-04-14T14:17:12.208Z,3.25
2023-04-14T14:19:38.551Z,1.65
2023-04-14T14:22:05.155Z,1.48
2023-04-14T14:24:31.519Z,2.20
2023-04-14T14:26:57.945Z,0.80
2023-04-14T14:29:24.268Z,0.57
2023-04-14T14:31:50.872Z,2.28
2023-04-14T14:34:17.952Z,2.63
2023-04-14T14:36:44.326Z,1.35
2023-04-14T14:39:10.668Z,2.40
2023-04-14T14:41:37.804Z,0.80
2023-04-14T14:44:04.480Z,0.93
2023-04-14T14:46:31.613Z,0.43
2023-04-14T14:48:58.282Z,1.33
2023-04-14T14:51:25.018Z,2.05
2023-04-14T14:53:53.057Z,0.77
2023-04-14T14:56:21.981Z,0.73
2023-04-14T14:58:48.371Z,0.55
2023-04-14T15:01:14.658Z,1.42
2023-04-14T15:03:41.358Z,1.55
2023-04-14T15:06:07.797Z,0.73
2023-04-14T15:08:34.168Z,0.47
2023-04-14T15:11:00.499Z,0.93
2023-04-14T15:13:27.913Z,0.60
2023-04-14T15:15:54.855Z,1.20
2023-04-14T15:18:22.308Z,0.60
2023-04-14T15:20:48.652Z,0.80
2023-04-14T15:23:15.014Z,1.08
2023-04-14T15:25:41.330Z,0.20
2023-04-14T15:28:07.627Z,0.10
2023-04-14T15:30:34.063Z,0.10
2023-04-14T15:33:00.802Z,0.75
2023-04-14T15:35:27.971Z,0.10
2023-04-14T15:37:54.422Z,0.20
2023-04-14T15:40:20.724Z,0.85
2023-04-14T15:42:47.086Z,0.75
2023-04-14T15:45:13.736Z,0.30
2023-04-14T15:47:40.337Z,0.70
2023-04-14T15:50:09.199Z,0.45
2023-04-14T15:52:36.698Z,0.25
2023-04-14T15:55:03.061Z,0.68
2023-04-14T15:57:29.371Z,0.35
2023-04-14T15:59:56.414Z,1.55
2023-04-14T16:02:22.961Z,0.85
2023-04-14T16:04:49.437Z,0.63
2023-04-14T16:07:15.966Z,1.88
2023-04-14T16:09:42.463Z,1.60
2023-04-14T16:12:08.913Z,0.73
2023-04-14T16:14:35.452Z,1.08
2023-04-14T16:17:02.095Z,2.05
2023-04-14T16:19:28.751Z,0.40
2023-04-14T16:21:56.829Z,0.52
2023-04-14T16:24:23.165Z,0.17
2023-04-14T16:26:49.471Z,1.52
2023-04-14T16:29:16.081Z,1.40
2023-04-14T16:31:42.402Z,0.50
2023-04-14T16:34:08.784Z,0.30
2023-04-14T16:36:35.064Z,0.65
2023-04-14T16:39:01.779Z,0.20
2023-04-14T16:41:28.826Z,0.38
2023-04-14T16:43:55.208Z,0.20
2023-04-14T16:46:21.877Z,0.20
2023-04-14T16:48:49.161Z,0.60
2023-04-14T16:51:15.562Z,1.52
2023-04-14T16:53:42.712Z,2.25
2023-04-14T16:56:09.884Z,2.28
2023-04-14T16:58:37.081Z,1.90
2023-04-14T17:01:03.980Z,1.67
2023-04-14T17:03:30.672Z,3.35
2023-04-14T17:05:57.241Z,1.20
2023-04-14T17:08:23.688Z,1.55
2023-04-14T17:10:50.392Z,0.85
2023-04-14T17:13:16.787Z,1.02
2023-04-14T17:15:43.939Z,1.50
2023-04-14T17:18:10.834Z,1.60
2023-04-14T17:20:39.398Z,0.68
2023-04-14T17:23:05.674Z,0.82
2023-04-14T17:25:34.320Z,0.52
2023-04-14T17:28:00.618Z,0.65
2023-04-14T17:30:27.516Z,0.20
2023-04-14T17:32:54.130Z,0.10
2023-04-14T17:35:21.381Z,0.10
2023-04-14T17:37:47.804Z,0.17
2023-04-14T17:40:15.838Z,0.10
2023-04-14T17:42:42.412Z,0.20
2023-04-14T17:45:12.030Z,0.88
2023-04-14T17:47:39.781Z,0.20
2023-04-14T17:50:06.545Z,0.10
2023-04-14T17:52:33.021Z,0.10
2023-04-14T17:54:59.735Z,0.30
2023-04-14T17:57:26.142Z,0.10
2023-04-14T17:59:53.590Z,0.10
2023-04-14T18:02:20.070Z,0.10
2023-04-14T18:04:48.056Z,0.10
2023-04-14T18:07:14.479Z,0.10
2023-04-14T18:09:40.777Z,0.10
2023-04-14T18:12:07.406Z,0.10
2023-04-14T18:14:33.780Z,0.10
2023-04-14T18:17:00.132Z,0.10
2023-04-14T18:19:26.990Z,0.10
2023-04-14T18:21:53.364Z,0.15
2023-04-14T18:26:49.014Z,0.10
2023-04-14T18:29:15.412Z,0.10
2023-04-14T18:31:42.560Z,0.10
2023-04-14T18:34:10.436Z,0.10
2023-04-14T18:36:37.868Z,0.10
2023-04-14T18:39:04.951Z,0.50
2023-04-14T18:41:31.342Z,0.50
2023-04-14T18:43:57.750Z,0.10
2023-04-14T18:46:24.295Z,0.10
2023-04-14T18:48:50.764Z,0.08
2023-04-14T18:51:17.958Z,0.10
2023-04-14T18:53:46.237Z,0.10
2023-04-14T18:56:13.552Z,0.40
2023-04-14T18:58:40.171Z,0.10
2023-04-14T19:01:06.845Z,0.28
2023-04-14T19:03:33.277Z,0.38
2023-04-14T19:06:00.125Z,0.63
2023-04-14T19:08:27.204Z,0.20
2023-04-14T19:10:53.976Z,0.10
2023-04-14T19:13:20.277Z,0.20
2023-04-14T19:15:46.974Z,0.10
2023-04-14T19:18:13.447Z,0.10
2023-04-14T19:20:39.801Z,0.13
2023-04-14T19:23:06.238Z,0.22
2023-04-14T19:25:32.762Z,0.30
2023-04-14T19:28:01.221Z,0.10
2023-04-14T19:30:28.963Z,0.20
2023-04-14T19:32:55.313Z,0.30
2023-04-14T19:35:22.468Z,0.10
2023-04-14T19:37:48.829Z,0.13
2023-04-14T19:40:15.155Z,0.10
2023-04-14T19:42:41.710Z,0.22
2023-04-14T19:45:08.455Z,0.20
2023-04-14T19:47:34.946Z,0.30
2023-04-14T19:50:01.312Z,0.20
2023-04-14T19:52:28.270Z,0.30
2023-04-14T19:54:55.078Z,0.43
2023-04-14T19:57:22.401Z,0.98
2023-04-14T19:59:49.175Z,0.50
2023-04-14T20:02:16.417Z,0.90
2023-04-14T20:04:43.646Z,0.35
2023-04-14T20:07:10.089Z,0.30
2023-04-14T20:09:36.455Z,0.38
2023-04-14T20:12:03.033Z,0.52
2023-04-14T20:14:29.573Z,0.60
2023-04-14T20:16:56.533Z,0.30
2023-04-14T20:19:23.256Z,0.68
2023-04-14T20:21:49.592Z,0.20
2023-04-14T20:24:16.041Z,0.20
2023-04-14T20:26:43.612Z,0.20
2023-04-14T20:29:09.955Z,0.20
2023-04-14T20:31:36.841Z,0.43
2023-04-14T20:34:04.126Z,0.22
2023-04-14T20:36:35.636Z,0.10
2023-04-14T20:39:04.878Z,0.20
2023-04-14T20:41:31.633Z,0.20
2023-04-14T20:43:57.989Z,0.20
2023-04-14T20:46:24.525Z,0.65
2023-04-14T20:48:51.097Z,0.60
2023-04-14T20:51:18.075Z,0.30
2023-04-14T20:53:45.255Z,0.30
2023-04-14T20:56:11.698Z,0.50
2023-04-14T20:58:38.358Z,0.70
2023-04-14T21:01:05.329Z,0.60
2023-04-14T21:03:34.450Z,0.45
2023-04-14T21:06:01.681Z,0.30
2023-04-14T21:08:31.017Z,0.35
2023-04-14T21:11:15.924Z,0.60
2023-04-14T21:15:28.892Z,0.30
2023-04-14T21:16:30.485Z,0.30
2023-04-14T21:18:57.460Z,1.00
2023-04-14T21:21:23.923Z,0.20
2023-04-14T21:23:50.301Z,0.30
2023-04-14T21:26:16.929Z,0.20
2023-04-14T21:28:43.224Z,0.20
2023-04-14T21:31:10.449Z,0.30
2023-04-14T21:33:39.468Z,0.20
2023-04-14T21:36:05.954Z,0.15
2023-04-14T21:38:32.370Z,0.10
2023-04-14T21:40:58.762Z,0.20
2023-04-14T21:43:25.085Z,0.10
2023-04-14T21:45:51.857Z,0.20
2023-04-14T21:48:19.168Z,0.20
2023-04-14T21:50:45.727Z,0.20
2023-04-14T21:53:12.437Z,0.20
2023-04-14T21:55:38.775Z,0.28
2023-04-14T21:58:05.607Z,0.30
2023-04-14T22:00:32.039Z,0.95
2023-04-14T22:02:58.634Z,0.30
2023-04-14T22:05:25.370Z,0.35
2023-04-14T22:07:51.956Z,0.30
2023-04-14T22:10:18.365Z,0.25
2023-04-14T22:12:45.672Z,0.30
2023-04-14T22:15:12.086Z,0.20
2023-04-14T22:17:38.969Z,0.20
2023-04-14T22:20:06.088Z,0.20
2023-04-14T22:22:32.994Z,0.20
2023-04-14T22:24:59.314Z,0.20
2023-04-14T22:27:25.646Z,0.20
2023-04-14T22:29:52.210Z,0.20
2023-04-14T22:32:18.529Z,0.17
2023-04-14T22:34:44.880Z,0.20
2023-04-14T22:37:11.478Z,0.30
2023-04-14T22:39:37.826Z,0.20
2023-04-14T22:42:04.161Z,0.82
2023-04-14T22:44:30.686Z,0.30
2023-04-14T22:46:57.129Z,0.30
2023-04-14T22:49:23.436Z,0.20
2023-04-14T22:51:49.752Z,0.20
2023-04-14T22:54:16.351Z,0.28
2023-04-14T22:56:42.693Z,0.30
2023-04-14T22:59:09.064Z,0.45
2023-04-14T23:01:35.385Z,0.30
2023-04-14T23:04:01.813Z,0.30
2023-04-14T23:06:28.215Z,0.22
2023-04-14T23:08:54.565Z,0.20
2023-04-14T23:11:21.392Z,0.20
2023-04-14T23:13:48.091Z,0.20
2023-04-14T23:16:16.676Z,0.20
2023-04-14T23:18:43.431Z,0.30
2023-04-14T23:21:10.005Z,1.83
2023-04-14T23:23:36.363Z,0.50
2023-04-14T23:26:02.776Z,0.95
2023-04-14T23:28:29.100Z,0.57
2023-04-14T23:30:55.920Z,1.45
2023-04-14T23:33:22.564Z,0.43
2023-04-14T23:35:48.902Z,0.50
2023-04-14T23:38:15.308Z,1.13
2023-04-14T23:40:41.661Z,0.40
2023-04-14T23:43:08.178Z,0.40
2023-04-14T23:45:37.616Z,0.40
2023-04-14T23:48:04.598Z,0.30
2023-04-14T23:51:00.549Z,0.30
2023-04-14T23:53:17.728Z,0.40
2023-04-14T23:55:44.112Z,0.50
2023-04-14T23:58:11.250Z,1.23
